Konpira2 — JJ3664 — position and weather

sailwx.info

Track history (hours):
 
Tides and Currents Weather Stations Pressure Air Temp Water Temp Dewpoint Dewpoint Depression Visibility Wind Speed Wind Dir Waves Ship Positions

Konpira2

Last reported at 2018-Feb-18 23:59 UTC. Time now 2018-Feb-19 00:06 UTC.
Position N 34°26' E 134°19'.

Length 108 m; draft 4.7 m.

Type: Ship. MMSI: 431000457.

Date/timePositionNaut miles runAvg speedWind from/ knotsBaromVisibWave heightAir tempDewpointWater temp
2018-Feb-18 23:59N 34°26' E 134°19'816.6
2018-Feb-18 23:30N 34°28' E 134°28'918.3
2018-Feb-18 23:00N 34°31' E 134°39'918.4
2018-Feb-18 22:30N 34°34' E 134°49'918.1
2018-Feb-18 22:00N 34°38' E 134°59'815.2
2018-Feb-18 21:30N 34°37' E 135°09'5 9.9
2018-Feb-18 21:00N 34°41' E 135°12'0 0.0
2018-Feb-18 20:30N 34°41' E 135°12'0 0.0
2018-Feb-18 20:01N 34°41' E 135°12'2 4.1
2018-Feb-18 19:30N 34°39' E 135°11'815.3
2018-Feb-18 19:00N 34°36' E 135°03'1019.5
2018-Feb-18 18:31N 34°34' E 134°51'918.7
2018-Feb-18 18:01N 34°31' E 134°41'917.8
2018-Feb-18 17:31N 34°27' E 134°31'917.7
2018-Feb-18 17:01N 34°25' E 134°20'917.4
2018-Feb-18 16:30N 34°24' E 134°10'5 3.0
2018-Feb-18 14:43N 34°21' E 134°04'310.2
2018-Feb-18 14:29N 34°24' E 134°06'817.0
2018-Feb-18 14:00N 34°25' E 134°15'4 4.5
2018-Feb-18 13:13N 34°26' E 134°19'316.5
2018-Feb-18 13:00N 34°26' E 134°24'918.3
2018-Feb-18 12:30N 34°30' E 134°34'918.5
2018-Feb-18 12:00N 34°33' E 134°44'1019.4
2018-Feb-18 11:30N 34°36' E 134°56'917.3
2018-Feb-18 11:00N 34°36' E 135°06'612.6
2018-Feb-18 10:30N 34°40' E 135°12'1 1.5
2018-Feb-18 10:00N 34°41' E 135°12'0 0.5
2018-Feb-18 09:30N 34°41' E 135°12'713.2
2018-Feb-18 09:00N 34°35' E 135°08'917.3
2018-Feb-18 08:30N 34°36' E 134°57'918.9
2018-Feb-18 08:00N 34°32' E 134°46'918.2
2018-Feb-18 07:30N 34°29' E 134°36'917.7
2018-Feb-18 07:00N 34°26' E 134°26'6 6.7
2018-Feb-18 06:06N 34°27' E 134°19'1 6.7
2018-Feb-18 06:00N 34°26' E 134°19'714.1
2018-Feb-18 05:30N 34°24' E 134°10'6 2.8
2018-Feb-18 03:23N 34°21' E 134°04'713.5
2018-Feb-18 02:52N 34°25' E 134°12'6 6.4
2018-Feb-18 01:51N 34°26' E 134°19'515.0
2018-Feb-18 01:30N 34°26' E 134°26'917.7
2018-Feb-18 01:00N 34°30' E 134°36'918.3
2018-Feb-18 00:30N 34°33' E 134°46'1020.2
2018-Feb-18 00:00N 34°37' E 134°57'917.7
2018-Feb-17 23:30N 34°37' E 135°08'510.3
2018-Feb-17 23:00N 34°41' E 135°12'0 0.0
2018-Feb-17 22:30N 34°41' E 135°12'0 0.0
2018-Feb-17 22:00N 34°41' E 135°12'0 0.0
2018-Feb-17 21:30N 34°41' E 135°12'0 0.0
2018-Feb-17 21:00N 34°41' E 135°12'0 0.0
2018-Feb-17 20:30N 34°41' E 135°12'0 0.0
2018-Feb-17 20:00N 34°41' E 135°12'2 3.9
2018-Feb-17 19:31N 34°39' E 135°11'714.8
2018-Feb-17 19:01N 34°35' E 135°04'918.7
2018-Feb-17 18:30N 34°34' E 134°52'919.0
2018-Feb-17 18:01N 34°30' E 134°42'918.0
2018-Feb-17 17:31N 34°27' E 134°32'918.1
2018-Feb-17 17:01N 34°23' E 134°22'918.3
2018-Feb-17 16:31N 34°24' E 134°11'6 3.8
2018-Feb-17 14:56N 34°21' E 134°04'4 9.9
2018-Feb-17 14:29N 34°24' E 134°08'715.4
2018-Feb-17 14:01N 34°26' E 134°17'3 4.2
2018-Feb-17 13:20N 34°26' E 134°20'617.2
2018-Feb-17 13:00N 34°27' E 134°27'917.3
2018-Feb-17 12:30N 34°30' E 134°37'917.6
2018-Feb-17 12:00N 34°33' E 134°47'918.8
2018-Feb-17 11:31N 34°37' E 134°57'816.4
2018-Feb-17 11:00N 34°36' E 135°07'612.2
2018-Feb-17 10:30N 34°41' E 135°12'0 0.5
2018-Feb-17 10:00N 34°41' E 135°12'0 0.3
2018-Feb-17 09:30N 34°41' E 135°12'613.3
2018-Feb-17 09:00N 34°36' E 135°07'816.9
2018-Feb-17 08:30N 34°36' E 134°57'918.5
2018-Feb-17 08:01N 34°33' E 134°46'917.3
2018-Feb-17 07:30N 34°32' E 134°36'816.6
2018-Feb-17 07:00N 34°27' E 134°28'815.4
2018-Feb-17 06:31N 34°26' E 134°19'1 1.5
2018-Feb-17 05:59N 34°27' E 134°19'815.4
2018-Feb-17 05:29N 34°24' E 134°10'6 2.9
2018-Feb-17 03:35N 34°21' E 134°04'1 7.2
2018-Feb-17 03:27N 34°22' E 134°05'613.9
2018-Feb-17 02:59N 34°24' E 134°12'6 6.4
2018-Feb-17 01:58N 34°26' E 134°19'715.8
2018-Feb-17 01:30N 34°28' E 134°28'917.5
2018-Feb-17 01:00N 34°31' E 134°38'918.1
2018-Feb-17 00:30N 34°34' E 134°48'1019.6
2018-Feb-17 00:00N 34°38' E 134°59'816.4
2018-Feb-16 23:31N 34°37' E 135°09'4 8.4
2018-Feb-16 23:00N 34°41' E 135°12'0 0.0
2018-Feb-16 22:31N 34°41' E 135°12'0 0.0
2018-Feb-16 22:00N 34°41' E 135°12'0 0.0
2018-Feb-16 21:31N 34°41' E 135°12'0 0.0
2018-Feb-16 21:00N 34°41' E 135°12'0 0.0
2018-Feb-16 20:31N 34°41' E 135°12'0 0.0
2018-Feb-16 20:00N 34°41' E 135°12'4 7.0
2018-Feb-16 19:30N 34°38' E 135°10'612.9
2018-Feb-16 19:00N 34°36' E 135°03'1019.0
2018-Feb-16 18:30N 34°34' E 134°51'918.9
2018-Feb-16 18:00N 34°30' E 134°41'918.3
2018-Feb-16 17:30N 34°27' E 134°31'918.2
2018-Feb-16 17:00N 34°24' E 134°20'918.3
2018-Feb-16 16:30N 34°24' E 134°09'5 2.9
2018-Feb-16 14:45N 34°21' E 134°04'2 7.1
2018-Feb-16 14:29N 34°23' E 134°05'612.4
2018-Feb-16 14:01N 34°24' E 134°12'816.5
2018-Feb-16 13:30N 34°25' E 134°22'917.6
2018-Feb-16 13:00N 34°29' E 134°32'917.8
2018-Feb-16 12:30N 34°32' E 134°42'918.9
2018-Feb-16 12:00N 34°36' E 134°53'918.2
2018-Feb-16 11:31N 34°36' E 135°04'714.3
2018-Feb-16 11:00N 34°40' E 135°11'1 2.7
2018-Feb-16 10:31N 34°41' E 135°12'0 0.0
2018-Feb-16 10:00N 34°41' E 135°12'0 0.1
2018-Feb-16 09:30N 34°41' E 135°12'612.2
2018-Feb-16 09:00N 34°36' E 135°08'815.5
2018-Feb-16 08:30N 34°37' E 134°59'918.9
2018-Feb-16 08:00N 34°33' E 134°49'918.0
2018-Feb-16 07:30N 34°29' E 134°39'917.8
2018-Feb-16 07:00N 34°26' E 134°29'815.2
2018-Feb-16 06:30N 34°26' E 134°19'1 1.8
2018-Feb-16 05:58N 34°27' E 134°19'816.2
2018-Feb-16 05:30N 34°24' E 134°10'5 1.4
2018-Feb-16 01:30N 34°21' E 134°04'611.1
2018-Feb-16 00:59N 34°24' E 134°10'715.0
2018-Feb-16 00:30N 34°27' E 134°18'0 0.7
2018-Feb-15 23:54N 34°27' E 134°19'614.8
2018-Feb-15 23:30N 34°27' E 134°26'918.0
2018-Feb-15 23:00N 34°30' E 134°36'918.8
2018-Feb-15 22:30N 34°33' E 134°47'1020.5
2018-Feb-15 22:00N 34°37' E 134°59'817.1
2018-Feb-15 21:30N 34°37' E 135°09'5 9.2
2018-Feb-15 21:01N 34°41' E 135°12'0 0.0
2018-Feb-15 20:30N 34°41' E 135°12'1 2.7
2018-Feb-15 20:01N 34°40' E 135°11'815.3
2018-Feb-15 19:30N 34°35' E 135°04'815.1
2018-Feb-15 19:00N 34°35' E 134°55'918.7
2018-Feb-15 18:30N 34°31' E 134°45'917.6
2018-Feb-15 18:01N 34°28' E 134°35'917.3
2018-Feb-15 17:30N 34°24' E 134°25'917.4
2018-Feb-15 17:00N 34°23' E 134°15'815.5
2018-Feb-15 16:29N 34°23' E 134°05'2 1.1
2018-Feb-15 14:46N 34°21' E 134°04'3 8.4
2018-Feb-15 14:27N 34°24' E 134°06'715.7
2018-Feb-15 14:00N 34°24' E 134°14'817.3
2018-Feb-15 13:31N 34°26' E 134°24'917.6
2018-Feb-15 13:01N 34°29' E 134°34'917.7
2018-Feb-15 12:30N 34°33' E 134°44'918.7
2018-Feb-15 12:01N 34°36' E 134°55'917.2
2018-Feb-15 11:31N 34°36' E 135°05'713.9
2018-Feb-15 11:00N 34°40' E 135°12'1 1.4
2018-Feb-15 10:30N 34°41' E 135°12'0 0.0
2018-Feb-15 10:00N 34°41' E 135°12'0 0.0
2018-Feb-15 09:31N 34°41' E 135°12'611.9
2018-Feb-15 09:00N 34°36' E 135°08'815.9
2018-Feb-15 08:30N 34°36' E 134°58'918.1
2018-Feb-15 08:00N 34°32' E 134°48'917.6
2018-Feb-15 07:31N 34°29' E 134°39'917.8
2018-Feb-15 07:00N 34°26' E 134°28'8 7.7
2018-Feb-15 05:58N 34°26' E 134°19'716.0
2018-Feb-15 05:30N 34°24' E 134°10'5 1.3
2018-Feb-15 01:27N 34°21' E 134°04'611.3
2018-Feb-15 00:58N 34°25' E 134°10'8 7.6
2018-Feb-14 23:57N 34°27' E 134°19'614.7
2018-Feb-14 23:31N 34°27' E 134°27'917.4
2018-Feb-14 23:00N 34°30' E 134°37'918.0
2018-Feb-14 22:31N 34°33' E 134°47'1019.8
2018-Feb-14 22:01N 34°37' E 134°58'917.1
2018-Feb-14 21:30N 34°37' E 135°08'510.3
2018-Feb-14 21:00N 34°41' E 135°12'0 0.0
2018-Feb-14 20:31N 34°41' E 135°12'0 0.0
2018-Feb-14 20:01N 34°41' E 135°12'612.0
2018-Feb-14 19:30N 34°36' E 135°08'816.8
2018-Feb-14 19:00N 34°36' E 134°57'1019.2
2018-Feb-14 18:30N 34°32' E 134°47'918.0
2018-Feb-14 18:00N 34°28' E 134°37'917.7
2018-Feb-14 17:30N 34°25' E 134°27'917.9
2018-Feb-14 17:01N 34°24' E 134°16'816.5
2018-Feb-14 16:30N 34°24' E 134°06'3 1.7
2018-Feb-14 14:51N 34°21' E 134°04'3 9.1
2018-Feb-14 14:29N 34°24' E 134°07'715.2
2018-Feb-14 14:00N 34°25' E 134°15'917.2
2018-Feb-14 13:30N 34°26' E 134°26'917.6
2018-Feb-14 13:01N 34°30' E 134°36'917.5
2018-Feb-14 12:30N 34°33' E 134°45'918.2
2018-Feb-14 12:00N 34°36' E 134°56'817.0
2018-Feb-14 11:30N 34°36' E 135°06'613.0
2018-Feb-14 11:00N 34°41' E 135°12'0 0.8
2018-Feb-14 10:30N 34°41' E 135°12'0 0.0
2018-Feb-14 10:01N 34°41' E 135°12'0 0.6
2018-Feb-14 09:30N 34°41' E 135°12'714.5
2018-Feb-14 09:00N 34°35' E 135°07'815.9
2018-Feb-14 08:31N 34°36' E 134°57'917.9
2018-Feb-14 08:01N 34°32' E 134°47'918.0
2018-Feb-14 07:31N 34°29' E 134°37'917.7
2018-Feb-14 07:00N 34°26' E 134°27'713.2
2018-Feb-14 06:30N 34°27' E 134°19'1 1.4
2018-Feb-14 06:01N 34°26' E 134°18'815.9
2018-Feb-14 05:30N 34°24' E 134°09'5 1.2
2018-Feb-14 01:26N 34°21' E 134°04'611.6
2018-Feb-14 00:56N 34°25' E 134°10'8 7.1
2018-Feb-13 23:51N 34°26' E 134°19'515.7
2018-Feb-13 23:31N 34°26' E 134°26'917.9
2018-Feb-13 23:01N 34°30' E 134°36'918.3
2018-Feb-13 22:31N 34°33' E 134°46'1020.1
2018-Feb-13 22:00N 34°37' E 134°57'917.6
2018-Feb-13 21:31N 34°37' E 135°08'510.4
2018-Feb-13 21:01N 34°41' E 135°12'0 0.0
2018-Feb-13 20:30N 34°41' E 135°12'0 0.0
2018-Feb-13 20:01N 34°41' E 135°12'612.2
2018-Feb-13 19:30N 34°36' E 135°07'815.6
2018-Feb-13 19:01N 34°37' E 134°58'918.5
2018-Feb-13 18:30N 34°33' E 134°48'917.8
2018-Feb-13 18:01N 34°30' E 134°38'917.5
2018-Feb-13 17:31N 34°26' E 134°28'917.6
2018-Feb-13 17:00N 34°24' E 134°18'916.9
2018-Feb-13 16:29N 34°24' E 134°07'4 2.4
2018-Feb-13 14:58N 34°21' E 134°04'711.6
2018-Feb-13 14:22N 34°24' E 134°12'616.1
2018-Feb-13 14:00N 34°25' E 134°19'816.9
2018-Feb-13 13:30N 34°27' E 134°29'817.0
2018-Feb-13 13:00N 34°31' E 134°38'816.8
2018-Feb-13 12:30N 34°34' E 134°48'917.5
2018-Feb-13 12:00N 34°37' E 134°58'816.1
2018-Feb-13 11:31N 34°36' E 135°07'611.7
2018-Feb-13 11:00N 34°41' E 135°12'0 0.5
2018-Feb-13 10:30N 34°41' E 135°12'0 0.0
2018-Feb-13 10:00N 34°41' E 135°12'0 0.0
2018-Feb-13 09:31N 34°41' E 135°12'612.6
2018-Feb-13 09:01N 34°36' E 135°08'816.0
2018-Feb-13 08:30N 34°37' E 134°58'918.2
2018-Feb-13 08:00N 34°33' E 134°48'917.9
2018-Feb-13 07:31N 34°29' E 134°38'917.8
2018-Feb-13 07:00N 34°26' E 134°28'814.9
2018-Feb-13 06:30N 34°26' E 134°19'1 1.1
2018-Feb-13 06:00N 34°27' E 134°19'816.2
2018-Feb-13 05:30N 34°24' E 134°09'4 0.9
2018-Feb-13 01:16N 34°23' E 134°05'415.5
2018-Feb-13 01:00N 34°24' E 134°09'714.6
2018-Feb-13 00:31N 34°26' E 134°18'2 2.5
2018-Feb-12 23:53N 34°26' E 134°20'615.9
2018-Feb-12 23:30N 34°27' E 134°27'917.9
2018-Feb-12 23:00N 34°30' E 134°37'918.3
2018-Feb-12 22:30N 34°34' E 134°47'1019.8
2018-Feb-12 22:00N 34°37' E 134°58'817.0
2018-Feb-12 21:31N 34°37' E 135°09'5 9.4
2018-Feb-12 21:00N 34°41' E 135°12'0 0.0
2018-Feb-12 20:30N 34°41' E 135°12'0 0.9
2018-Feb-12 20:00N 34°40' E 135°12'714.8
2018-Feb-12 19:31N 34°35' E 135°06'815.3
2018-Feb-12 19:01N 34°36' E 134°57'917.8
2018-Feb-12 18:30N 34°32' E 134°47'917.6
2018-Feb-12 18:01N 34°29' E 134°37'917.5
2018-Feb-12 17:31N 34°25' E 134°27'917.5
2018-Feb-12 17:01N 34°23' E 134°17'816.7
2018-Feb-12 16:30N 34°24' E 134°07'3 2.5
2018-Feb-12 15:10N 34°21' E 134°04'1 8.7
2018-Feb-12 15:00N 34°23' E 134°05'714.1
2018-Feb-12 14:29N 34°24' E 134°13'5 5.6
2018-Feb-12 13:30N 34°26' E 134°20'816.8
2018-Feb-12 13:01N 34°28' E 134°29'917.5
2018-Feb-12 12:31N 34°31' E 134°39'917.4
2018-Feb-12 12:01N 34°34' E 134°49'917.9
2018-Feb-12 11:30N 34°38' E 134°59'815.3
2018-Feb-12 11:01N 34°37' E 135°09'5 9.6
2018-Feb-12 10:30N 34°41' E 135°12'0 0.0
2018-Feb-12 10:00N 34°41' E 135°12'1 2.0
2018-Feb-12 09:30N 34°40' E 135°12'815.3
2018-Feb-12 09:00N 34°35' E 135°05'815.5
2018-Feb-12 08:30N 34°36' E 134°56'917.6
2018-Feb-12 08:00N 34°32' E 134°46'917.7
2018-Feb-12 07:30N 34°28' E 134°36'917.4
2018-Feb-12 07:00N 34°26' E 134°26'6 5.9
2018-Feb-12 06:01N 34°27' E 134°19'015.0
2018-Feb-12 06:00N 34°26' E 134°18'715.1
2018-Feb-12 05:30N 34°24' E 134°10'5 2.9
2018-Feb-12 03:40N 34°21' E 134°04'3 9.1
2018-Feb-12 03:21N 34°24' E 134°06'615.5
2018-Feb-12 02:57N 34°24' E 134°14'5 5.6
2018-Feb-12 02:03N 34°26' E 134°20'114.9
2018-Feb-12 02:00N 34°26' E 134°20'816.7
2018-Feb-12 01:30N 34°29' E 134°30'917.1
2018-Feb-12 01:00N 34°32' E 134°40'917.6
2018-Feb-12 00:30N 34°34' E 134°50'917.7
2018-Feb-12 00:01N 34°38' E 134°60'815.7
2018-Feb-11 23:31N 34°37' E 135°09'5 9.3
2018-Feb-11 23:00N 34°41' E 135°12'0 0.0
2018-Feb-11 22:30N 34°41' E 135°12'0 0.0
2018-Feb-11 22:00N 34°41' E 135°12'0 0.0
2018-Feb-11 21:30N 34°41' E 135°12'0 0.0
2018-Feb-11 21:01N 34°41' E 135°12'0 0.0
2018-Feb-11 20:30N 34°41' E 135°12'0 0.5
2018-Feb-11 20:00N 34°41' E 135°12'714.3
2018-Feb-11 19:30N 34°35' E 135°06'714.8
2018-Feb-11 19:00N 34°37' E 134°57'917.6
2018-Feb-11 18:30N 34°33' E 134°48'917.9
2018-Feb-11 18:00N 34°29' E 134°38'917.8
2018-Feb-11 17:30N 34°26' E 134°28'917.8
2018-Feb-11 17:00N 34°24' E 134°17'816.6
2018-Feb-11 16:30N 34°24' E 134°07'3 2.5
2018-Feb-11 15:08N 34°21' E 134°04'1 7.7
2018-Feb-11 15:00N 34°22' E 134°04'914.2
2018-Feb-11 14:24N 34°24' E 134°15'4 4.9
2018-Feb-11 13:30N 34°26' E 134°19'816.6
2018-Feb-11 13:00N 34°28' E 134°29'917.5
2018-Feb-11 12:30N 34°31' E 134°39'917.3
2018-Feb-11 12:00N 34°34' E 134°49'917.1
2018-Feb-11 11:30N 34°38' E 134°58'815.4
2018-Feb-11 11:01N 34°36' E 135°08'510.9
2018-Feb-11 10:30N 34°41' E 135°12'0 0.7
2018-Feb-11 10:01N 34°41' E 135°12'3 5.8
2018-Feb-11 09:31N 34°38' E 135°11'714.2
2018-Feb-11 09:01N 34°36' E 135°03'816.0
2018-Feb-11 08:30N 34°34' E 134°53'917.6
2018-Feb-11 08:01N 34°31' E 134°43'917.8
2018-Feb-11 07:31N 34°28' E 134°33'917.1
2018-Feb-11 07:00N 34°26' E 134°23'4 4.4
2018-Feb-11 06:10N 34°26' E 134°19'2 9.4
2018-Feb-11 06:00N 34°26' E 134°17'713.7
2018-Feb-11 05:30N 34°24' E 134°09'5 2.6
2018-Feb-11 03:36N 34°21' E 134°04'2 9.2
2018-Feb-11 03:24N 34°23' E 134°05'715.3
2018-Feb-11 02:56N 34°24' E 134°14'5 6.1
2018-Feb-11 02:07N 34°27' E 134°19'112.0
2018-Feb-11 02:00N 34°26' E 134°20'817.1
2018-Feb-11 01:31N 34°28' E 134°30'917.1
2018-Feb-11 01:00N 34°32' E 134°39'917.3
2018-Feb-11 00:30N 34°34' E 134°49'917.7
2018-Feb-11 00:00N 34°38' E 134°59'815.8
2018-Feb-10 23:30N 34°36' E 135°09'510.4
2018-Feb-10 23:01N 34°41' E 135°12'0 0.0
2018-Feb-10 22:30N 34°41' E 135°12'0 0.0
2018-Feb-10 22:01N 34°41' E 135°12'0 0.0
2018-Feb-10 21:31N 34°41' E 135°12'0 0.0
2018-Feb-10 21:00N 34°41' E 135°12'0 0.0
2018-Feb-10 20:31N 34°41' E 135°12'0 0.0
2018-Feb-10 20:00N 34°41' E 135°12'611.4
2018-Feb-10 19:30N 34°36' E 135°08'714.3
2018-Feb-10 19:00N 34°37' E 134°59'816.9
2018-Feb-10 18:30N 34°33' E 134°50'917.7
2018-Feb-10 18:00N 34°30' E 134°40'917.9
2018-Feb-10 17:30N 34°27' E 134°30'917.9
2018-Feb-10 17:00N 34°23' E 134°20'917.3
2018-Feb-10 16:30N 34°24' E 134°10'5 4.9
2018-Feb-10 15:24N 34°21' E 134°04'510.7
2018-Feb-10 14:59N 34°24' E 134°09'714.6
2018-Feb-10 14:30N 34°26' E 134°17'2 4.7
2018-Feb-10 13:59N 34°27' E 134°19'612.3
2018-Feb-10 13:30N 34°28' E 134°26'917.3
2018-Feb-10 13:00N 34°31' E 134°36'816.9
2018-Feb-10 12:30N 34°33' E 134°46'817.0
2018-Feb-10 12:00N 34°36' E 134°55'815.6
2018-Feb-10 11:30N 34°36' E 135°05'713.4
2018-Feb-10 11:00N 34°40' E 135°11'1 2.0
2018-Feb-10 10:30N 34°41' E 135°12'0 0.0
2018-Feb-10 10:00N 34°41' E 135°12'5 9.4
2018-Feb-10 09:31N 34°36' E 135°11'612.5
2018-Feb-10 09:00N 34°36' E 135°03'613.0
2018-Feb-10 08:30N 34°35' E 134°55'917.0
2018-Feb-10 08:00N 34°32' E 134°46'917.3
2018-Feb-10 07:30N 34°29' E 134°36'917.1
2018-Feb-10 07:00N 34°26' E 134°26'6 6.6
2018-Feb-10 06:06N 34°27' E 134°19'112.9
2018-Feb-10 06:00N 34°26' E 134°18'714.6
2018-Feb-10 05:30N 34°24' E 134°09'5 2.5
2018-Feb-10 03:37N 34°21' E 134°04'1 5.2
2018-Feb-10 03:26N 34°22' E 134°04'715.2
2018-Feb-10 02:58N 34°25' E 134°13'6 5.7
2018-Feb-10 01:56N 34°26' E 134°20'717.4
2018-Feb-10 01:30N 34°27' E 134°28'918.0
2018-Feb-10 01:00N 34°30' E 134°39'918.0
2018-Feb-10 00:31N 34°34' E 134°49'918.2
2018-Feb-10 00:01N 34°38' E 134°59'815.8
2018-Feb-09 23:31N 34°37' E 135°08'510.0
2018-Feb-09 23:00N 34°41' E 135°12'0 0.0
2018-Feb-09 22:46N 34°41' E 135°12'0 0.0
2018-Feb-09 22:30N 34°41' E 135°12'0 0.0
2018-Feb-09 22:00N 34°41' E 135°12'0 0.0
2018-Feb-09 21:30N 34°41' E 135°12'3 2.0
2018-Feb-09 20:00N 34°38' E 135°10'713.8
2018-Feb-09 19:30N 34°36' E 135°02'713.9
2018-Feb-09 19:00N 34°35' E 134°54'816.3
2018-Feb-09 18:30N 34°32' E 134°45'1717.3
2018-Feb-09 17:30N 34°25' E 134°26'5 1.2
2018-Feb-09 13:30N 34°28' E 134°31'1717.2
2018-Feb-09 12:31N 34°34' E 134°50'816.1
2018-Feb-09 12:00N 34°38' E 134°59'714.6
2018-Feb-09 11:30N 34°37' E 135°08'510.4
2018-Feb-09 11:00N 34°41' E 135°12'0 0.0
2018-Feb-09 10:30N 34°41' E 135°12'0 0.0
2018-Feb-09 10:01N 34°41' E 135°12'1 2.3
2018-Feb-09 09:30N 34°40' E 135°12'1414.3
2018-Feb-09 08:30N 34°35' E 134°55'917.5
2018-Feb-09 08:00N 34°31' E 134°46'1717.4
2018-Feb-09 07:00N 34°26' E 134°26'7 6.6
2018-Feb-09 06:00N 34°26' E 134°18'815.5
2018-Feb-09 05:30N 34°24' E 134°09'  
Track history (hours):
 
Tides and Currents Weather Stations Pressure Air Temp Water Temp Dewpoint Dewpoint Depression Visibility Wind Speed Wind Dir Waves Ship Positions

Konpira2

Last reported at 2018-Feb-18 23:59 UTC. Time now 2018-Feb-19 00:06 UTC.
Position N 34°26' E 134°19'.

Length 108 m; draft 4.7 m.

Type: Ship. MMSI: 431000457.

Date/timePositionNaut miles runAvg speedWind from/ knotsBaromVisibWave heightAir tempDewpointWater temp
2018-Feb-18 23:59N 34°26' E 134°19'816.6
2018-Feb-18 23:30N 34°28' E 134°28'918.3
2018-Feb-18 23:00N 34°31' E 134°39'918.4
2018-Feb-18 22:30N 34°34' E 134°49'918.1
2018-Feb-18 22:00N 34°38' E 134°59'815.2
2018-Feb-18 21:30N 34°37' E 135°09'5 9.9
2018-Feb-18 21:00N 34°41' E 135°12'0 0.0
2018-Feb-18 20:30N 34°41' E 135°12'0 0.0
2018-Feb-18 20:01N 34°41' E 135°12'2 4.1
2018-Feb-18 19:30N 34°39' E 135°11'815.3
2018-Feb-18 19:00N 34°36' E 135°03'1019.5
2018-Feb-18 18:31N 34°34' E 134°51'918.7
2018-Feb-18 18:01N 34°31' E 134°41'917.8
2018-Feb-18 17:31N 34°27' E 134°31'917.7
2018-Feb-18 17:01N 34°25' E 134°20'917.4
2018-Feb-18 16:30N 34°24' E 134°10'5 3.0
2018-Feb-18 14:43N 34°21' E 134°04'310.2
2018-Feb-18 14:29N 34°24' E 134°06'817.0
2018-Feb-18 14:00N 34°25' E 134°15'4 4.5
2018-Feb-18 13:13N 34°26' E 134°19'316.5
2018-Feb-18 13:00N 34°26' E 134°24'918.3
2018-Feb-18 12:30N 34°30' E 134°34'918.5
2018-Feb-18 12:00N 34°33' E 134°44'1019.4
2018-Feb-18 11:30N 34°36' E 134°56'917.3
2018-Feb-18 11:00N 34°36' E 135°06'612.6
2018-Feb-18 10:30N 34°40' E 135°12'1 1.5
2018-Feb-18 10:00N 34°41' E 135°12'0 0.5
2018-Feb-18 09:30N 34°41' E 135°12'713.2
2018-Feb-18 09:00N 34°35' E 135°08'917.3
2018-Feb-18 08:30N 34°36' E 134°57'918.9
2018-Feb-18 08:00N 34°32' E 134°46'918.2
2018-Feb-18 07:30N 34°29' E 134°36'917.7
2018-Feb-18 07:00N 34°26' E 134°26'6 6.7
2018-Feb-18 06:06N 34°27' E 134°19'1 6.7
2018-Feb-18 06:00N 34°26' E 134°19'714.1
2018-Feb-18 05:30N 34°24' E 134°10'6 2.8
2018-Feb-18 03:23N 34°21' E 134°04'713.5
2018-Feb-18 02:52N 34°25' E 134°12'6 6.4
2018-Feb-18 01:51N 34°26' E 134°19'515.0
2018-Feb-18 01:30N 34°26' E 134°26'917.7
2018-Feb-18 01:00N 34°30' E 134°36'918.3
2018-Feb-18 00:30N 34°33' E 134°46'1020.2
2018-Feb-18 00:00N 34°37' E 134°57'917.7
2018-Feb-17 23:30N 34°37' E 135°08'510.3
2018-Feb-17 23:00N 34°41' E 135°12'0 0.0
2018-Feb-17 22:30N 34°41' E 135°12'0 0.0
2018-Feb-17 22:00N 34°41' E 135°12'0 0.0
2018-Feb-17 21:30N 34°41' E 135°12'0 0.0
2018-Feb-17 21:00N 34°41' E 135°12'0 0.0
2018-Feb-17 20:30N 34°41' E 135°12'0 0.0
2018-Feb-17 20:00N 34°41' E 135°12'2 3.9
2018-Feb-17 19:31N 34°39' E 135°11'714.8
2018-Feb-17 19:01N 34°35' E 135°04'918.7
2018-Feb-17 18:30N 34°34' E 134°52'919.0
2018-Feb-17 18:01N 34°30' E 134°42'918.0
2018-Feb-17 17:31N 34°27' E 134°32'918.1
2018-Feb-17 17:01N 34°23' E 134°22'918.3
2018-Feb-17 16:31N 34°24' E 134°11'6 3.8
2018-Feb-17 14:56N 34°21' E 134°04'4 9.9
2018-Feb-17 14:29N 34°24' E 134°08'715.4
2018-Feb-17 14:01N 34°26' E 134°17'3 4.2
2018-Feb-17 13:20N 34°26' E 134°20'617.2
2018-Feb-17 13:00N 34°27' E 134°27'917.3
2018-Feb-17 12:30N 34°30' E 134°37'917.6
2018-Feb-17 12:00N 34°33' E 134°47'918.8
2018-Feb-17 11:31N 34°37' E 134°57'816.4
2018-Feb-17 11:00N 34°36' E 135°07'612.2
2018-Feb-17 10:30N 34°41' E 135°12'0 0.5
2018-Feb-17 10:00N 34°41' E 135°12'0 0.3
2018-Feb-17 09:30N 34°41' E 135°12'613.3
2018-Feb-17 09:00N 34°36' E 135°07'816.9
2018-Feb-17 08:30N 34°36' E 134°57'918.5
2018-Feb-17 08:01N 34°33' E 134°46'917.3
2018-Feb-17 07:30N 34°32' E 134°36'816.6
2018-Feb-17 07:00N 34°27' E 134°28'815.4
2018-Feb-17 06:31N 34°26' E 134°19'1 1.5
2018-Feb-17 05:59N 34°27' E 134°19'815.4
2018-Feb-17 05:29N 34°24' E 134°10'6 2.9
2018-Feb-17 03:35N 34°21' E 134°04'1 7.2
2018-Feb-17 03:27N 34°22' E 134°05'613.9
2018-Feb-17 02:59N 34°24' E 134°12'6 6.4
2018-Feb-17 01:58N 34°26' E 134°19'715.8
2018-Feb-17 01:30N 34°28' E 134°28'917.5
2018-Feb-17 01:00N 34°31' E 134°38'918.1
2018-Feb-17 00:30N 34°34' E 134°48'1019.6
2018-Feb-17 00:00N 34°38' E 134°59'816.4
2018-Feb-16 23:31N 34°37' E 135°09'4 8.4
2018-Feb-16 23:00N 34°41' E 135°12'0 0.0
2018-Feb-16 22:31N 34°41' E 135°12'0 0.0
2018-Feb-16 22:00N 34°41' E 135°12'0 0.0
2018-Feb-16 21:31N 34°41' E 135°12'0 0.0
2018-Feb-16 21:00N 34°41' E 135°12'0 0.0
2018-Feb-16 20:31N 34°41' E 135°12'0 0.0
2018-Feb-16 20:00N 34°41' E 135°12'4 7.0
2018-Feb-16 19:30N 34°38' E 135°10'612.9
2018-Feb-16 19:00N 34°36' E 135°03'1019.0
2018-Feb-16 18:30N 34°34' E 134°51'918.9
2018-Feb-16 18:00N 34°30' E 134°41'918.3
2018-Feb-16 17:30N 34°27' E 134°31'918.2
2018-Feb-16 17:00N 34°24' E 134°20'918.3
2018-Feb-16 16:30N 34°24' E 134°09'5 2.9
2018-Feb-16 14:45N 34°21' E 134°04'2 7.1
2018-Feb-16 14:29N 34°23' E 134°05'612.4
2018-Feb-16 14:01N 34°24' E 134°12'816.5
2018-Feb-16 13:30N 34°25' E 134°22'917.6
2018-Feb-16 13:00N 34°29' E 134°32'917.8
2018-Feb-16 12:30N 34°32' E 134°42'918.9
2018-Feb-16 12:00N 34°36' E 134°53'918.2
2018-Feb-16 11:31N 34°36' E 135°04'714.3
2018-Feb-16 11:00N 34°40' E 135°11'1 2.7
2018-Feb-16 10:31N 34°41' E 135°12'0 0.0
2018-Feb-16 10:00N 34°41' E 135°12'0 0.1
2018-Feb-16 09:30N 34°41' E 135°12'612.2
2018-Feb-16 09:00N 34°36' E 135°08'815.5
2018-Feb-16 08:30N 34°37' E 134°59'918.9
2018-Feb-16 08:00N 34°33' E 134°49'918.0
2018-Feb-16 07:30N 34°29' E 134°39'917.8
2018-Feb-16 07:00N 34°26' E 134°29'815.2
2018-Feb-16 06:30N 34°26' E 134°19'1 1.8
2018-Feb-16 05:58N 34°27' E 134°19'816.2
2018-Feb-16 05:30N 34°24' E 134°10'5 1.4
2018-Feb-16 01:30N 34°21' E 134°04'611.1
2018-Feb-16 00:59N 34°24' E 134°10'715.0
2018-Feb-16 00:30N 34°27' E 134°18'0 0.7
2018-Feb-15 23:54N 34°27' E 134°19'614.8
2018-Feb-15 23:30N 34°27' E 134°26'918.0
2018-Feb-15 23:00N 34°30' E 134°36'918.8
2018-Feb-15 22:30N 34°33' E 134°47'1020.5
2018-Feb-15 22:00N 34°37' E 134°59'817.1
2018-Feb-15 21:30N 34°37' E 135°09'5 9.2
2018-Feb-15 21:01N 34°41' E 135°12'0 0.0
2018-Feb-15 20:30N 34°41' E 135°12'1 2.7
2018-Feb-15 20:01N 34°40' E 135°11'815.3
2018-Feb-15 19:30N 34°35' E 135°04'815.1
2018-Feb-15 19:00N 34°35' E 134°55'918.7
2018-Feb-15 18:30N 34°31' E 134°45'917.6
2018-Feb-15 18:01N 34°28' E 134°35'917.3
2018-Feb-15 17:30N 34°24' E 134°25'917.4
2018-Feb-15 17:00N 34°23' E 134°15'815.5
2018-Feb-15 16:29N 34°23' E 134°05'2 1.1
2018-Feb-15 14:46N 34°21' E 134°04'3 8.4
2018-Feb-15 14:27N 34°24' E 134°06'715.7
2018-Feb-15 14:00N 34°24' E 134°14'817.3
2018-Feb-15 13:31N 34°26' E 134°24'917.6
2018-Feb-15 13:01N 34°29' E 134°34'917.7
2018-Feb-15 12:30N 34°33' E 134°44'918.7
2018-Feb-15 12:01N 34°36' E 134°55'917.2
2018-Feb-15 11:31N 34°36' E 135°05'713.9
2018-Feb-15 11:00N 34°40' E 135°12'1 1.4
2018-Feb-15 10:30N 34°41' E 135°12'0 0.0
2018-Feb-15 10:00N 34°41' E 135°12'0 0.0
2018-Feb-15 09:31N 34°41' E 135°12'611.9
2018-Feb-15 09:00N 34°36' E 135°08'815.9
2018-Feb-15 08:30N 34°36' E 134°58'918.1
2018-Feb-15 08:00N 34°32' E 134°48'917.6
2018-Feb-15 07:31N 34°29' E 134°39'917.8
2018-Feb-15 07:00N 34°26' E 134°28'8 7.7
2018-Feb-15 05:58N 34°26' E 134°19'716.0
2018-Feb-15 05:30N 34°24' E 134°10'5 1.3
2018-Feb-15 01:27N 34°21' E 134°04'611.3
2018-Feb-15 00:58N 34°25' E 134°10'8 7.6
2018-Feb-14 23:57N 34°27' E 134°19'614.7
2018-Feb-14 23:31N 34°27' E 134°27'917.4
2018-Feb-14 23:00N 34°30' E 134°37'918.0
2018-Feb-14 22:31N 34°33' E 134°47'1019.8
2018-Feb-14 22:01N 34°37' E 134°58'917.1
2018-Feb-14 21:30N 34°37' E 135°08'510.3
2018-Feb-14 21:00N 34°41' E 135°12'0 0.0
2018-Feb-14 20:31N 34°41' E 135°12'0 0.0
2018-Feb-14 20:01N 34°41' E 135°12'612.0
2018-Feb-14 19:30N 34°36' E 135°08'816.8
2018-Feb-14 19:00N 34°36' E 134°57'1019.2
2018-Feb-14 18:30N 34°32' E 134°47'918.0
2018-Feb-14 18:00N 34°28' E 134°37'917.7
2018-Feb-14 17:30N 34°25' E 134°27'917.9
2018-Feb-14 17:01N 34°24' E 134°16'816.5
2018-Feb-14 16:30N 34°24' E 134°06'3 1.7
2018-Feb-14 14:51N 34°21' E 134°04'3 9.1
2018-Feb-14 14:29N 34°24' E 134°07'715.2
2018-Feb-14 14:00N 34°25' E 134°15'917.2
2018-Feb-14 13:30N 34°26' E 134°26'917.6
2018-Feb-14 13:01N 34°30' E 134°36'917.5
2018-Feb-14 12:30N 34°33' E 134°45'918.2
2018-Feb-14 12:00N 34°36' E 134°56'817.0
2018-Feb-14 11:30N 34°36' E 135°06'613.0
2018-Feb-14 11:00N 34°41' E 135°12'0 0.8
2018-Feb-14 10:30N 34°41' E 135°12'0 0.0
2018-Feb-14 10:01N 34°41' E 135°12'0 0.6
2018-Feb-14 09:30N 34°41' E 135°12'714.5
2018-Feb-14 09:00N 34°35' E 135°07'815.9
2018-Feb-14 08:31N 34°36' E 134°57'917.9
2018-Feb-14 08:01N 34°32' E 134°47'918.0
2018-Feb-14 07:31N 34°29' E 134°37'917.7
2018-Feb-14 07:00N 34°26' E 134°27'713.2
2018-Feb-14 06:30N 34°27' E 134°19'1 1.4
2018-Feb-14 06:01N 34°26' E 134°18'815.9
2018-Feb-14 05:30N 34°24' E 134°09'5 1.2
2018-Feb-14 01:26N 34°21' E 134°04'611.6
2018-Feb-14 00:56N 34°25' E 134°10'8 7.1
2018-Feb-13 23:51N 34°26' E 134°19'515.7
2018-Feb-13 23:31N 34°26' E 134°26'917.9
2018-Feb-13 23:01N 34°30' E 134°36'918.3
2018-Feb-13 22:31N 34°33' E 134°46'1020.1
2018-Feb-13 22:00N 34°37' E 134°57'917.6
2018-Feb-13 21:31N 34°37' E 135°08'510.4
2018-Feb-13 21:01N 34°41' E 135°12'0 0.0
2018-Feb-13 20:30N 34°41' E 135°12'0 0.0
2018-Feb-13 20:01N 34°41' E 135°12'612.2
2018-Feb-13 19:30N 34°36' E 135°07'815.6
2018-Feb-13 19:01N 34°37' E 134°58'918.5
2018-Feb-13 18:30N 34°33' E 134°48'917.8
2018-Feb-13 18:01N 34°30' E 134°38'917.5
2018-Feb-13 17:31N 34°26' E 134°28'917.6
2018-Feb-13 17:00N 34°24' E 134°18'916.9
2018-Feb-13 16:29N 34°24' E 134°07'4 2.4
2018-Feb-13 14:58N 34°21' E 134°04'711.6
2018-Feb-13 14:22N 34°24' E 134°12'616.1
2018-Feb-13 14:00N 34°25' E 134°19'816.9
2018-Feb-13 13:30N 34°27' E 134°29'817.0
2018-Feb-13 13:00N 34°31' E 134°38'816.8
2018-Feb-13 12:30N 34°34' E 134°48'917.5
2018-Feb-13 12:00N 34°37' E 134°58'816.1
2018-Feb-13 11:31N 34°36' E 135°07'611.7
2018-Feb-13 11:00N 34°41' E 135°12'0 0.5
2018-Feb-13 10:30N 34°41' E 135°12'0 0.0
2018-Feb-13 10:00N 34°41' E 135°12'0 0.0
2018-Feb-13 09:31N 34°41' E 135°12'612.6
2018-Feb-13 09:01N 34°36' E 135°08'816.0
2018-Feb-13 08:30N 34°37' E 134°58'918.2
2018-Feb-13 08:00N 34°33' E 134°48'917.9
2018-Feb-13 07:31N 34°29' E 134°38'917.8
2018-Feb-13 07:00N 34°26' E 134°28'814.9
2018-Feb-13 06:30N 34°26' E 134°19'1 1.1
2018-Feb-13 06:00N 34°27' E 134°19'816.2
2018-Feb-13 05:30N 34°24' E 134°09'4 0.9
2018-Feb-13 01:16N 34°23' E 134°05'415.5
2018-Feb-13 01:00N 34°24' E 134°09'714.6
2018-Feb-13 00:31N 34°26' E 134°18'2 2.5
2018-Feb-12 23:53N 34°26' E 134°20'615.9
2018-Feb-12 23:30N 34°27' E 134°27'917.9
2018-Feb-12 23:00N 34°30' E 134°37'918.3
2018-Feb-12 22:30N 34°34' E 134°47'1019.8
2018-Feb-12 22:00N 34°37' E 134°58'817.0
2018-Feb-12 21:31N 34°37' E 135°09'5 9.4
2018-Feb-12 21:00N 34°41' E 135°12'0 0.0
2018-Feb-12 20:30N 34°41' E 135°12'0 0.9
2018-Feb-12 20:00N 34°40' E 135°12'714.8
2018-Feb-12 19:31N 34°35' E 135°06'815.3
2018-Feb-12 19:01N 34°36' E 134°57'917.8
2018-Feb-12 18:30N 34°32' E 134°47'917.6
2018-Feb-12 18:01N 34°29' E 134°37'917.5
2018-Feb-12 17:31N 34°25' E 134°27'917.5
2018-Feb-12 17:01N 34°23' E 134°17'816.7
2018-Feb-12 16:30N 34°24' E 134°07'3 2.5
2018-Feb-12 15:10N 34°21' E 134°04'1 8.7
2018-Feb-12 15:00N 34°23' E 134°05'714.1
2018-Feb-12 14:29N 34°24' E 134°13'5 5.6
2018-Feb-12 13:30N 34°26' E 134°20'816.8
2018-Feb-12 13:01N 34°28' E 134°29'917.5
2018-Feb-12 12:31N 34°31' E 134°39'917.4
2018-Feb-12 12:01N 34°34' E 134°49'917.9
2018-Feb-12 11:30N 34°38' E 134°59'815.3
2018-Feb-12 11:01N 34°37' E 135°09'5 9.6
2018-Feb-12 10:30N 34°41' E 135°12'0 0.0
2018-Feb-12 10:00N 34°41' E 135°12'1 2.0
2018-Feb-12 09:30N 34°40' E 135°12'815.3
2018-Feb-12 09:00N 34°35' E 135°05'815.5
2018-Feb-12 08:30N 34°36' E 134°56'917.6
2018-Feb-12 08:00N 34°32' E 134°46'917.7
2018-Feb-12 07:30N 34°28' E 134°36'917.4
2018-Feb-12 07:00N 34°26' E 134°26'6 5.9
2018-Feb-12 06:01N 34°27' E 134°19'015.0
2018-Feb-12 06:00N 34°26' E 134°18'715.1
2018-Feb-12 05:30N 34°24' E 134°10'5 2.9
2018-Feb-12 03:40N 34°21' E 134°04'3 9.1
2018-Feb-12 03:21N 34°24' E 134°06'615.5
2018-Feb-12 02:57N 34°24' E 134°14'5 5.6
2018-Feb-12 02:03N 34°26' E 134°20'114.9
2018-Feb-12 02:00N 34°26' E 134°20'816.7
2018-Feb-12 01:30N 34°29' E 134°30'917.1
2018-Feb-12 01:00N 34°32' E 134°40'917.6
2018-Feb-12 00:30N 34°34' E 134°50'917.7
2018-Feb-12 00:01N 34°38' E 134°60'815.7
2018-Feb-11 23:31N 34°37' E 135°09'5 9.3
2018-Feb-11 23:00N 34°41' E 135°12'0 0.0
2018-Feb-11 22:30N 34°41' E 135°12'0 0.0
2018-Feb-11 22:00N 34°41' E 135°12'0 0.0
2018-Feb-11 21:30N 34°41' E 135°12'0 0.0
2018-Feb-11 21:01N 34°41' E 135°12'0 0.0
2018-Feb-11 20:30N 34°41' E 135°12'0 0.5
2018-Feb-11 20:00N 34°41' E 135°12'714.3
2018-Feb-11 19:30N 34°35' E 135°06'714.8
2018-Feb-11 19:00N 34°37' E 134°57'917.6
2018-Feb-11 18:30N 34°33' E 134°48'917.9
2018-Feb-11 18:00N 34°29' E 134°38'917.8
2018-Feb-11 17:30N 34°26' E 134°28'917.8
2018-Feb-11 17:00N 34°24' E 134°17'816.6
2018-Feb-11 16:30N 34°24' E 134°07'3 2.5
2018-Feb-11 15:08N 34°21' E 134°04'1 7.7
2018-Feb-11 15:00N 34°22' E 134°04'914.2
2018-Feb-11 14:24N 34°24' E 134°15'4 4.9
2018-Feb-11 13:30N 34°26' E 134°19'816.6
2018-Feb-11 13:00N 34°28' E 134°29'917.5
2018-Feb-11 12:30N 34°31' E 134°39'917.3
2018-Feb-11 12:00N 34°34' E 134°49'917.1
2018-Feb-11 11:30N 34°38' E 134°58'815.4
2018-Feb-11 11:01N 34°36' E 135°08'510.9
2018-Feb-11 10:30N 34°41' E 135°12'0 0.7
2018-Feb-11 10:01N 34°41' E 135°12'3 5.8
2018-Feb-11 09:31N 34°38' E 135°11'714.2
2018-Feb-11 09:01N 34°36' E 135°03'816.0
2018-Feb-11 08:30N 34°34' E 134°53'917.6
2018-Feb-11 08:01N 34°31' E 134°43'917.8
2018-Feb-11 07:31N 34°28' E 134°33'917.1
2018-Feb-11 07:00N 34°26' E 134°23'4 4.4
2018-Feb-11 06:10N 34°26' E 134°19'2 9.4
2018-Feb-11 06:00N 34°26' E 134°17'713.7
2018-Feb-11 05:30N 34°24' E 134°09'5 2.6
2018-Feb-11 03:36N 34°21' E 134°04'2 9.2
2018-Feb-11 03:24N 34°23' E 134°05'715.3
2018-Feb-11 02:56N 34°24' E 134°14'5 6.1
2018-Feb-11 02:07N 34°27' E 134°19'112.0
2018-Feb-11 02:00N 34°26' E 134°20'817.1
2018-Feb-11 01:31N 34°28' E 134°30'917.1
2018-Feb-11 01:00N 34°32' E 134°39'917.3
2018-Feb-11 00:30N 34°34' E 134°49'917.7
2018-Feb-11 00:00N 34°38' E 134°59'815.8
2018-Feb-10 23:30N 34°36' E 135°09'510.4
2018-Feb-10 23:01N 34°41' E 135°12'0 0.0
2018-Feb-10 22:30N 34°41' E 135°12'0 0.0
2018-Feb-10 22:01N 34°41' E 135°12'0 0.0
2018-Feb-10 21:31N 34°41' E 135°12'0 0.0
2018-Feb-10 21:00N 34°41' E 135°12'0 0.0
2018-Feb-10 20:31N 34°41' E 135°12'0 0.0
2018-Feb-10 20:00N 34°41' E 135°12'611.4
2018-Feb-10 19:30N 34°36' E 135°08'714.3
2018-Feb-10 19:00N 34°37' E 134°59'816.9
2018-Feb-10 18:30N 34°33' E 134°50'917.7
2018-Feb-10 18:00N 34°30' E 134°40'917.9
2018-Feb-10 17:30N 34°27' E 134°30'917.9
2018-Feb-10 17:00N 34°23' E 134°20'917.3
2018-Feb-10 16:30N 34°24' E 134°10'5 4.9
2018-Feb-10 15:24N 34°21' E 134°04'510.7
2018-Feb-10 14:59N 34°24' E 134°09'714.6
2018-Feb-10 14:30N 34°26' E 134°17'2 4.7
2018-Feb-10 13:59N 34°27' E 134°19'612.3
2018-Feb-10 13:30N 34°28' E 134°26'917.3
2018-Feb-10 13:00N 34°31' E 134°36'816.9
2018-Feb-10 12:30N 34°33' E 134°46'817.0
2018-Feb-10 12:00N 34°36' E 134°55'815.6
2018-Feb-10 11:30N 34°36' E 135°05'713.4
2018-Feb-10 11:00N 34°40' E 135°11'1 2.0
2018-Feb-10 10:30N 34°41' E 135°12'0 0.0
2018-Feb-10 10:00N 34°41' E 135°12'5 9.4
2018-Feb-10 09:31N 34°36' E 135°11'612.5
2018-Feb-10 09:00N 34°36' E 135°03'613.0
2018-Feb-10 08:30N 34°35' E 134°55'917.0
2018-Feb-10 08:00N 34°32' E 134°46'917.3
2018-Feb-10 07:30N 34°29' E 134°36'917.1
2018-Feb-10 07:00N 34°26' E 134°26'6 6.6
2018-Feb-10 06:06N 34°27' E 134°19'112.9
2018-Feb-10 06:00N 34°26' E 134°18'714.6
2018-Feb-10 05:30N 34°24' E 134°09'5 2.5
2018-Feb-10 03:37N 34°21' E 134°04'1 5.2
2018-Feb-10 03:26N 34°22' E 134°04'715.2
2018-Feb-10 02:58N 34°25' E 134°13'6 5.7
2018-Feb-10 01:56N 34°26' E 134°20'717.4
2018-Feb-10 01:30N 34°27' E 134°28'918.0
2018-Feb-10 01:00N 34°30' E 134°39'918.0
2018-Feb-10 00:31N 34°34' E 134°49'918.2
2018-Feb-10 00:01N 34°38' E 134°59'815.8
2018-Feb-09 23:31N 34°37' E 135°08'510.0
2018-Feb-09 23:00N 34°41' E 135°12'0 0.0
2018-Feb-09 22:46N 34°41' E 135°12'0 0.0
2018-Feb-09 22:30N 34°41' E 135°12'0 0.0
2018-Feb-09 22:00N 34°41' E 135°12'0 0.0
2018-Feb-09 21:30N 34°41' E 135°12'3 2.0
2018-Feb-09 20:00N 34°38' E 135°10'713.8
2018-Feb-09 19:30N 34°36' E 135°02'713.9
2018-Feb-09 19:00N 34°35' E 134°54'816.3
2018-Feb-09 18:30N 34°32' E 134°45'1717.3
2018-Feb-09 17:30N 34°25' E 134°26'5 1.2
2018-Feb-09 13:30N 34°28' E 134°31'1717.2
2018-Feb-09 12:31N 34°34' E 134°50'816.1
2018-Feb-09 12:00N 34°38' E 134°59'714.6
2018-Feb-09 11:30N 34°37' E 135°08'510.4
2018-Feb-09 11:00N 34°41' E 135°12'0 0.0
2018-Feb-09 10:30N 34°41' E 135°12'0 0.0
2018-Feb-09 10:01N 34°41' E 135°12'1 2.3
2018-Feb-09 09:30N 34°40' E 135°12'1414.3
2018-Feb-09 08:30N 34°35' E 134°55'917.5
2018-Feb-09 08:00N 34°31' E 134°46'1717.4
2018-Feb-09 07:00N 34°26' E 134°26'7 6.6
2018-Feb-09 06:00N 34°26' E 134°18'815.5
2018-Feb-09 05:30N 34°24' E 134°09'  

Dump ship's entire track history